sensor_id;sensor_type;location;lat;lon;timestamp;temperature;humidity
7902;DHT22;3996;49.674;10.716;2024-03-02T00:01:07;6.50;53.20
7902;DHT22;3996;49.674;10.716;2024-03-02T00:03:33;6.40;53.00
7902;DHT22;3996;49.674;10.716;2024-03-02T00:05:59;6.40;52.90
7902;DHT22;3996;49.674;10.716;2024-03-02T00:08:25;6.50;52.80
7902;DHT22;3996;49.674;10.716;2024-03-02T00:11:00;6.50;52.70
7902;DHT22;3996;49.674;10.716;2024-03-02T00:13:26;6.50;52.30
7902;DHT22;3996;49.674;10.716;2024-03-02T00:15:56;6.50;51.90
7902;DHT22;3996;49.674;10.716;2024-03-02T00:18:33;6.50;52.00
7902;DHT22;3996;49.674;10.716;2024-03-02T00:21:00;6.50;52.90
7902;DHT22;3996;49.674;10.716;2024-03-02T00:23:33;6.50;52.60
7902;DHT22;3996;49.674;10.716;2024-03-02T00:25:59;6.40;53.10
7902;DHT22;3996;49.674;10.716;2024-03-02T00:28:34;6.40;53.40
7902;DHT22;3996;49.674;10.716;2024-03-02T00:31:09;6.40;53.70
7902;DHT22;3996;49.674;10.716;2024-03-02T00:33:42;6.50;53.30
7902;DHT22;3996;49.674;10.716;2024-03-02T00:36:09;6.50;52.60
7902;DHT22;3996;49.674;10.716;2024-03-02T00:38:46;6.50;53.00
7902;DHT22;3996;49.674;10.716;2024-03-02T00:41:17;6.50;52.40
7902;DHT22;3996;49.674;10.716;2024-03-02T00:43:48;6.50;52.20
7902;DHT22;3996;49.674;10.716;2024-03-02T00:46:18;6.40;53.00
7902;DHT22;3996;49.674;10.716;2024-03-02T00:48:55;6.40;53.60
7902;DHT22;3996;49.674;10.716;2024-03-02T00:51:22;6.40;54.00
7902;DHT22;3996;49.674;10.716;2024-03-02T00:53:48;6.40;53.60
7902;DHT22;3996;49.674;10.716;2024-03-02T00:56:14;6.40;54.10
7902;DHT22;3996;49.674;10.716;2024-03-02T00:58:40;6.40;53.80
7902;DHT22;3996;49.674;10.716;2024-03-02T01:01:06;6.40;53.60
7902;DHT22;3996;49.674;10.716;2024-03-02T01:03:33;6.40;53.70
7902;DHT22;3996;49.674;10.716;2024-03-02T01:05:59;6.40;53.70
7902;DHT22;3996;49.674;10.716;2024-03-02T01:08:24;6.40;54.10
7902;DHT22;3996;49.674;10.716;2024-03-02T01:10:51;6.30;54.20
7902;DHT22;3996;49.674;10.716;2024-03-02T01:13:17;6.30;54.40
7902;DHT22;3996;49.674;10.716;2024-03-02T01:15:42;6.30;54.40
7902;DHT22;3996;49.674;10.716;2024-03-02T01:18:08;6.30;54.60
7902;DHT22;3996;49.674;10.716;2024-03-02T01:20:34;6.30;55.30
7902;DHT22;3996;49.674;10.716;2024-03-02T01:22:59;6.30;55.00
7902;DHT22;3996;49.674;10.716;2024-03-02T01:25:25;6.30;54.00
7902;DHT22;3996;49.674;10.716;2024-03-02T01:27:50;6.20;54.20
7902;DHT22;3996;49.674;10.716;2024-03-02T01:30:16;6.20;55.00
7902;DHT22;3996;49.674;10.716;2024-03-02T01:32:42;6.20;55.30
7902;DHT22;3996;49.674;10.716;2024-03-02T01:35:07;6.20;55.00
7902;DHT22;3996;49.674;10.716;2024-03-02T01:37:33;6.10;55.20
7902;DHT22;3996;49.674;10.716;2024-03-02T01:39:59;6.20;54.90
7902;DHT22;3996;49.674;10.716;2024-03-02T01:42:24;6.20;55.30
7902;DHT22;3996;49.674;10.716;2024-03-02T01:44:51;6.20;55.30
7902;DHT22;3996;49.674;10.716;2024-03-02T01:47:18;6.20;55.30
7902;DHT22;3996;49.674;10.716;2024-03-02T01:49:43;6.20;55.60
7902;DHT22;3996;49.674;10.716;2024-03-02T01:52:09;6.20;55.30
7902;DHT22;3996;49.674;10.716;2024-03-02T01:54:34;6.10;55.20
7902;DHT22;3996;49.674;10.716;2024-03-02T01:57:00;6.10;55.30
7902;DHT22;3996;49.674;10.716;2024-03-02T01:59:26;6.10;55.30
7902;DHT22;3996;49.674;10.716;2024-03-02T02:01:52;6.10;55.80
7902;DHT22;3996;49.674;10.716;2024-03-02T02:04:17;6.10;56.10
7902;DHT22;3996;49.674;10.716;2024-03-02T02:06:46;6.10;56.10
7902;DHT22;3996;49.674;10.716;2024-03-02T02:09:12;6.20;56.40
7902;DHT22;3996;49.674;10.716;2024-03-02T02:11:37;6.30;56.60
7902;DHT22;3996;49.674;10.716;2024-03-02T02:14:03;6.30;56.60
7902;DHT22;3996;49.674;10.716;2024-03-02T02:16:28;6.30;56.80
7902;DHT22;3996;49.674;10.716;2024-03-02T02:18:54;6.30;56.60
7902;DHT22;3996;49.674;10.716;2024-03-02T02:21:23;6.40;56.90
7902;DHT22;3996;49.674;10.716;2024-03-02T02:23:48;6.30;57.30
7902;DHT22;3996;49.674;10.716;2024-03-02T02:26:15;6.40;57.10
7902;DHT22;3996;49.674;10.716;2024-03-02T02:28:41;6.40;57.10
7902;DHT22;3996;49.674;10.716;2024-03-02T02:31:12;6.40;57.40
7902;DHT22;3996;49.674;10.716;2024-03-02T02:33:39;6.40;57.90
7902;DHT22;3996;49.674;10.716;2024-03-02T02:36:05;6.40;58.00
7902;DHT22;3996;49.674;10.716;2024-03-02T02:38:33;6.40;58.00
7902;DHT22;3996;49.674;10.716;2024-03-02T02:40:59;6.40;58.00
7902;DHT22;3996;49.674;10.716;2024-03-02T02:43:25;6.40;58.30
7902;DHT22;3996;49.674;10.716;2024-03-02T02:45:50;6.40;58.20
7902;DHT22;3996;49.674;10.716;2024-03-02T02:48:16;6.40;58.50
7902;DHT22;3996;49.674;10.716;2024-03-02T02:50:42;6.40;59.60
7902;DHT22;3996;49.674;10.716;2024-03-02T02:53:07;6.20;60.50
7902;DHT22;3996;49.674;10.716;2024-03-02T02:55:35;6.10;61.60
7902;DHT22;3996;49.674;10.716;2024-03-02T02:58:06;6.20;61.50
7902;DHT22;3996;49.674;10.716;2024-03-02T03:00:31;6.20;60.70
7902;DHT22;3996;49.674;10.716;2024-03-02T03:02:57;6.20;60.90
7902;DHT22;3996;49.674;10.716;2024-03-02T03:05:22;6.00;61.80
7902;DHT22;3996;49.674;10.716;2024-03-02T03:07:48;6.10;61.30
7902;DHT22;3996;49.674;10.716;2024-03-02T03:10:15;6.20;60.50
7902;DHT22;3996;49.674;10.716;2024-03-02T03:12:42;6.20;59.10
7902;DHT22;3996;49.674;10.716;2024-03-02T03:15:09;6.20;58.30
7902;DHT22;3996;49.674;10.716;2024-03-02T03:17:35;6.20;57.70
7902;DHT22;3996;49.674;10.716;2024-03-02T03:20:01;6.10;57.60
7902;DHT22;3996;49.674;10.716;2024-03-02T03:22:28;6.10;57.30
7902;DHT22;3996;49.674;10.716;2024-03-02T03:24:53;6.00;57.10
7902;DHT22;3996;49.674;10.716;2024-03-02T03:27:19;6.00;57.40
7902;DHT22;3996;49.674;10.716;2024-03-02T03:29:47;6.00;57.30
7902;DHT22;3996;49.674;10.716;2024-03-02T03:32:13;5.90;57.30
7902;DHT22;3996;49.674;10.716;2024-03-02T03:34:39;5.90;57.70
7902;DHT22;3996;49.674;10.716;2024-03-02T03:37:05;5.90;58.10
7902;DHT22;3996;49.674;10.716;2024-03-02T03:39:31;5.90;57.80
7902;DHT22;3996;49.674;10.716;2024-03-02T03:41:56;5.80;57.70
7902;DHT22;3996;49.674;10.716;2024-03-02T03:44:22;5.80;57.60
7902;DHT22;3996;49.674;10.716;2024-03-02T03:46:47;5.80;57.40
7902;DHT22;3996;49.674;10.716;2024-03-02T03:49:13;5.80;57.30
7902;DHT22;3996;49.674;10.716;2024-03-02T03:51:39;5.80;57.30
7902;DHT22;3996;49.674;10.716;2024-03-02T03:54:04;5.90;57.20
7902;DHT22;3996;49.674;10.716;2024-03-02T03:56:30;5.90;57.00
7902;DHT22;3996;49.674;10.716;2024-03-02T03:58:55;5.80;56.80
7902;DHT22;3996;49.674;10.716;2024-03-02T04:01:21;5.80;56.30
7902;DHT22;3996;49.674;10.716;2024-03-02T04:03:48;5.70;56.00
7902;DHT22;3996;49.674;10.716;2024-03-02T04:06:13;5.70;55.60
7902;DHT22;3996;49.674;10.716;2024-03-02T04:08:41;5.70;56.20
7902;DHT22;3996;49.674;10.716;2024-03-02T04:11:06;5.70;55.30
7902;DHT22;3996;49.674;10.716;2024-03-02T04:13:33;5.70;56.10
7902;DHT22;3996;49.674;10.716;2024-03-02T04:15:58;5.70;55.70
7902;DHT22;3996;49.674;10.716;2024-03-02T04:18:24;5.70;56.30
7902;DHT22;3996;49.674;10.716;2024-03-02T04:20:49;5.70;56.20
7902;DHT22;3996;49.674;10.716;2024-03-02T04:23:15;5.70;56.40
7902;DHT22;3996;49.674;10.716;2024-03-02T04:25:40;5.70;56.10
7902;DHT22;3996;49.674;10.716;2024-03-02T04:28:06;5.70;56.20
7902;DHT22;3996;49.674;10.716;2024-03-02T04:30:32;5.60;56.10
7902;DHT22;3996;49.674;10.716;2024-03-02T04:32:57;5.60;55.50
7902;DHT22;3996;49.674;10.716;2024-03-02T04:35:23;5.50;55.90
7902;DHT22;3996;49.674;10.716;2024-03-02T04:37:48;5.60;57.10
7902;DHT22;3996;49.674;10.716;2024-03-02T04:40:14;5.60;56.30
7902;DHT22;3996;49.674;10.716;2024-03-02T04:42:40;5.60;56.90
7902;DHT22;3996;49.674;10.716;2024-03-02T04:45:06;5.60;55.60
7902;DHT22;3996;49.674;10.716;2024-03-02T04:47:32;5.60;55.50
7902;DHT22;3996;49.674;10.716;2024-03-02T04:49:58;5.70;56.20
7902;DHT22;3996;49.674;10.716;2024-03-02T04:52:23;5.70;54.40
7902;DHT22;3996;49.674;10.716;2024-03-02T04:54:49;5.60;54.80
7902;DHT22;3996;49.674;10.716;2024-03-02T04:57:33;5.60;54.70
7902;DHT22;3996;49.674;10.716;2024-03-02T04:59:58;5.50;54.70
7902;DHT22;3996;49.674;10.716;2024-03-02T05:02:24;5.50;54.70
7902;DHT22;3996;49.674;10.716;2024-03-02T05:04:50;5.40;55.30
7902;DHT22;3996;49.674;10.716;2024-03-02T05:07:15;5.40;55.20
7902;DHT22;3996;49.674;10.716;2024-03-02T05:09:41;5.40;56.80
7902;DHT22;3996;49.674;10.716;2024-03-02T05:12:07;5.50;57.70
7902;DHT22;3996;49.674;10.716;2024-03-02T05:14:51;5.50;58.80
7902;DHT22;3996;49.674;10.716;2024-03-02T05:17:17;5.60;59.40
7902;DHT22;3996;49.674;10.716;2024-03-02T05:19:42;5.60;59.20
7902;DHT22;3996;49.674;10.716;2024-03-02T05:22:08;5.60;59.70
7902;DHT22;3996;49.674;10.716;2024-03-02T05:24:34;5.60;58.00
7902;DHT22;3996;49.674;10.716;2024-03-02T05:26:59;5.50;58.50
7902;DHT22;3996;49.674;10.716;2024-03-02T05:29:25;5.50;58.80
7902;DHT22;3996;49.674;10.716;2024-03-02T05:31:50;5.50;58.90
7902;DHT22;3996;49.674;10.716;2024-03-02T05:34:16;5.50;58.80
7902;DHT22;3996;49.674;10.716;2024-03-02T05:36:41;5.40;58.00
7902;DHT22;3996;49.674;10.716;2024-03-02T05:39:07;5.40;58.00
7902;DHT22;3996;49.674;10.716;2024-03-02T05:41:35;5.50;56.90
7902;DHT22;3996;49.674;10.716;2024-03-02T05:44:00;5.50;58.20
7902;DHT22;3996;49.674;10.716;2024-03-02T05:46:27;5.60;57.50
7902;DHT22;3996;49.674;10.716;2024-03-02T05:48:52;5.60;57.80
7902;DHT22;3996;49.674;10.716;2024-03-02T05:51:18;5.60;57.10
7902;DHT22;3996;49.674;10.716;2024-03-02T05:53:43;5.60;56.30
7902;DHT22;3996;49.674;10.716;2024-03-02T05:56:09;5.50;56.60
7902;DHT22;3996;49.674;10.716;2024-03-02T05:58:35;5.40;57.20
7902;DHT22;3996;49.674;10.716;2024-03-02T06:01:18;5.40;57.20
7902;DHT22;3996;49.674;10.716;2024-03-02T06:03:44;5.20;57.40
7902;DHT22;3996;49.674;10.716;2024-03-02T06:06:10;5.30;57.80
7902;DHT22;3996;49.674;10.716;2024-03-02T06:08:36;5.30;59.00
7902;DHT22;3996;49.674;10.716;2024-03-02T06:11:01;5.40;58.50
7902;DHT22;3996;49.674;10.716;2024-03-02T06:13:27;5.40;58.60
7902;DHT22;3996;49.674;10.716;2024-03-02T06:15:53;5.40;58.10
7902;DHT22;3996;49.674;10.716;2024-03-02T06:18:18;5.40;58.10
7902;DHT22;3996;49.674;10.716;2024-03-02T06:20:44;5.40;58.50
7902;DHT22;3996;49.674;10.716;2024-03-02T06:23:09;5.50;58.80
7902;DHT22;3996;49.674;10.716;2024-03-02T06:25:35;5.50;60.30
7902;DHT22;3996;49.674;10.716;2024-03-02T06:28:01;5.60;59.80
7902;DHT22;3996;49.674;10.716;2024-03-02T06:30:26;5.70;59.90
7902;DHT22;3996;49.674;10.716;2024-03-02T06:32:52;5.70;59.90
7902;DHT22;3996;49.674;10.716;2024-03-02T06:35:18;5.70;59.80
7902;DHT22;3996;49.674;10.716;2024-03-02T06:37:43;5.70;59.00
7902;DHT22;3996;49.674;10.716;2024-03-02T06:40:09;5.60;59.50
7902;DHT22;3996;49.674;10.716;2024-03-02T06:42:35;5.70;60.00
7902;DHT22;3996;49.674;10.716;2024-03-02T06:45:01;5.90;60.50
7902;DHT22;3996;49.674;10.716;2024-03-02T06:47:27;6.00;60.60
7902;DHT22;3996;49.674;10.716;2024-03-02T06:49:53;6.10;61.20
7902;DHT22;3996;49.674;10.716;2024-03-02T06:52:19;6.40;60.50
7902;DHT22;3996;49.674;10.716;2024-03-02T06:54:45;6.80;58.50
7902;DHT22;3996;49.674;10.716;2024-03-02T06:57:11;7.00;56.80
7902;DHT22;3996;49.674;10.716;2024-03-02T06:59:37;7.20;56.20
7902;DHT22;3996;49.674;10.716;2024-03-02T07:02:03;7.50;53.00
7902;DHT22;3996;49.674;10.716;2024-03-02T07:04:28;8.10;51.50
7902;DHT22;3996;49.674;10.716;2024-03-02T07:06:54;8.50;47.40
7902;DHT22;3996;49.674;10.716;2024-03-02T07:09:20;8.40;47.50
7902;DHT22;3996;49.674;10.716;2024-03-02T07:11:48;9.30;44.30
7902;DHT22;3996;49.674;10.716;2024-03-02T07:14:14;9.10;42.20
7902;DHT22;3996;49.674;10.716;2024-03-02T07:16:40;8.60;44.00
7902;DHT22;3996;49.674;10.716;2024-03-02T07:19:06;8.20;46.40
7902;DHT22;3996;49.674;10.716;2024-03-02T07:21:32;7.90;48.90
7902;DHT22;3996;49.674;10.716;2024-03-02T07:23:58;7.80;50.60
7902;DHT22;3996;49.674;10.716;2024-03-02T07:26:25;7.90;51.80
7902;DHT22;3996;49.674;10.716;2024-03-02T07:28:50;7.90;51.70
7902;DHT22;3996;49.674;10.716;2024-03-02T07:31:16;8.00;51.40
7902;DHT22;3996;49.674;10.716;2024-03-02T07:33:45;7.90;52.20
7902;DHT22;3996;49.674;10.716;2024-03-02T07:36:14;7.80;53.40
7902;DHT22;3996;49.674;10.716;2024-03-02T07:38:40;7.80;54.20
7902;DHT22;3996;49.674;10.716;2024-03-02T07:41:06;7.90;54.30
7902;DHT22;3996;49.674;10.716;2024-03-02T07:43:32;7.90;54.30
7902;DHT22;3996;49.674;10.716;2024-03-02T07:45:59;7.90;53.80
7902;DHT22;3996;49.674;10.716;2024-03-02T07:48:25;7.80;54.90
7902;DHT22;3996;49.674;10.716;2024-03-02T07:50:50;7.70;55.80
7902;DHT22;3996;49.674;10.716;2024-03-02T07:53:16;7.80;56.40
7902;DHT22;3996;49.674;10.716;2024-03-02T07:55:42;7.90;56.80
7902;DHT22;3996;49.674;10.716;2024-03-02T07:58:07;8.00;56.90
7902;DHT22;3996;49.674;10.716;2024-03-02T08:00:33;8.00;56.50
7902;DHT22;3996;49.674;10.716;2024-03-02T08:02:59;8.20;55.50
7902;DHT22;3996;49.674;10.716;2024-03-02T08:05:26;8.30;55.30
7902;DHT22;3996;49.674;10.716;2024-03-02T08:07:52;8.40;55.70
7902;DHT22;3996;49.674;10.716;2024-03-02T08:10:18;8.90;54.10
7902;DHT22;3996;49.674;10.716;2024-03-02T08:12:44;9.30;51.30
7902;DHT22;3996;49.674;10.716;2024-03-02T08:15:10;9.70;48.30
7902;DHT22;3996;49.674;10.716;2024-03-02T08:17:38;10.00;44.50
7902;DHT22;3996;49.674;10.716;2024-03-02T08:20:06;10.30;42.80
7902;DHT22;3996;49.674;10.716;2024-03-02T08:22:33;10.70;39.70
7902;DHT22;3996;49.674;10.716;2024-03-02T08:24:59;11.20;36.90
7902;DHT22;3996;49.674;10.716;2024-03-02T08:27:24;11.50;35.30
7902;DHT22;3996;49.674;10.716;2024-03-02T08:29:50;11.80;34.90
7902;DHT22;3996;49.674;10.716;2024-03-02T08:32:15;11.70;31.60
7902;DHT22;3996;49.674;10.716;2024-03-02T08:34:42;11.50;30.70
7902;DHT22;3996;49.674;10.716;2024-03-02T08:37:08;11.10;32.60
7902;DHT22;3996;49.674;10.716;2024-03-02T08:39:33;10.90;33.20
7902;DHT22;3996;49.674;10.716;2024-03-02T08:41:59;10.70;35.20
7902;DHT22;3996;49.674;10.716;2024-03-02T08:44:24;10.90;34.80
7902;DHT22;3996;49.674;10.716;2024-03-02T08:46:50;10.80;35.10
7902;DHT22;3996;49.674;10.716;2024-03-02T08:49:16;10.70;35.20
7902;DHT22;3996;49.674;10.716;2024-03-02T08:51:41;10.60;36.20
7902;DHT22;3996;49.674;10.716;2024-03-02T08:54:07;10.70;36.30
7902;DHT22;3996;49.674;10.716;2024-03-02T08:56:32;10.80;34.60
7902;DHT22;3996;49.674;10.716;2024-03-02T08:58:58;10.80;32.30
7902;DHT22;3996;49.674;10.716;2024-03-02T09:01:24;10.80;33.00
7902;DHT22;3996;49.674;10.716;2024-03-02T09:03:49;11.00;33.30
7902;DHT22;3996;49.674;10.716;2024-03-02T09:06:15;10.90;32.40
7902;DHT22;3996;49.674;10.716;2024-03-02T09:08:45;10.90;33.30
7902;DHT22;3996;49.674;10.716;2024-03-02T09:11:11;11.00;33.40
7902;DHT22;3996;49.674;10.716;2024-03-02T09:13:38;10.90;33.60
7902;DHT22;3996;49.674;10.716;2024-03-02T09:16:04;10.80;32.50
7902;DHT22;3996;49.674;10.716;2024-03-02T09:18:30;10.70;33.70
7902;DHT22;3996;49.674;10.716;2024-03-02T09:20:56;10.70;34.00
7902;DHT22;3996;49.674;10.716;2024-03-02T09:23:21;10.60;34.30
7902;DHT22;3996;49.674;10.716;2024-03-02T09:25:47;10.60;33.50
7902;DHT22;3996;49.674;10.716;2024-03-02T09:28:13;10.60;33.70
7902;DHT22;3996;49.674;10.716;2024-03-02T09:30:40;10.60;33.70
7902;DHT22;3996;49.674;10.716;2024-03-02T09:33:06;10.60;34.40
7902;DHT22;3996;49.674;10.716;2024-03-02T09:35:32;10.60;34.70
7902;DHT22;3996;49.674;10.716;2024-03-02T09:37:57;10.60;34.70
7902;DHT22;3996;49.674;10.716;2024-03-02T09:40:23;10.60;33.80
7902;DHT22;3996;49.674;10.716;2024-03-02T09:42:49;10.60;33.60
7902;DHT22;3996;49.674;10.716;2024-03-02T09:45:22;10.70;34.10
7902;DHT22;3996;49.674;10.716;2024-03-02T09:47:48;10.80;33.70
7902;DHT22;3996;49.674;10.716;2024-03-02T09:50:14;10.80;32.30
7902;DHT22;3996;49.674;10.716;2024-03-02T09:52:41;11.00;33.00
7902;DHT22;3996;49.674;10.716;2024-03-02T09:55:08;11.20;32.70
7902;DHT22;3996;49.674;10.716;2024-03-02T09:57:33;11.30;31.80
7902;DHT22;3996;49.674;10.716;2024-03-02T09:59:59;11.30;31.40
7902;DHT22;3996;49.674;10.716;2024-03-02T10:02:24;11.30;31.80
7902;DHT22;3996;49.674;10.716;2024-03-02T10:04:50;11.30;29.70
7902;DHT22;3996;49.674;10.716;2024-03-02T10:07:19;11.20;30.40
7902;DHT22;3996;49.674;10.716;2024-03-02T10:09:46;11.40;31.70
7902;DHT22;3996;49.674;10.716;2024-03-02T10:12:13;11.50;30.10
7902;DHT22;3996;49.674;10.716;2024-03-02T10:14:40;11.50;29.60
7902;DHT22;3996;49.674;10.716;2024-03-02T10:17:08;11.40;29.20
7902;DHT22;3996;49.674;10.716;2024-03-02T10:19:34;11.50;29.80
7902;DHT22;3996;49.674;10.716;2024-03-02T10:22:01;11.40;29.20
7902;DHT22;3996;49.674;10.716;2024-03-02T10:24:34;11.40;29.30
7902;DHT22;3996;49.674;10.716;2024-03-02T10:27:00;11.50;30.10
7902;DHT22;3996;49.674;10.716;2024-03-02T10:29:29;11.60;29.40
7902;DHT22;3996;49.674;10.716;2024-03-02T10:31:55;11.70;29.80
7902;DHT22;3996;49.674;10.716;2024-03-02T10:34:21;11.60;29.60
7902;DHT22;3996;49.674;10.716;2024-03-02T10:36:47;11.50;31.00
7902;DHT22;3996;49.674;10.716;2024-03-02T10:39:14;11.60;31.00
7902;DHT22;3996;49.674;10.716;2024-03-02T10:41:40;11.70;30.80
7902;DHT22;3996;49.674;10.716;2024-03-02T10:44:07;11.70;29.90
7902;DHT22;3996;49.674;10.716;2024-03-02T10:46:34;11.80;30.00
7902;DHT22;3996;49.674;10.716;2024-03-02T10:49:01;12.00;29.60
7902;DHT22;3996;49.674;10.716;2024-03-02T10:51:29;12.00;29.50
7902;DHT22;3996;49.674;10.716;2024-03-02T10:54:00;12.00;29.50
7902;DHT22;3996;49.674;10.716;2024-03-02T10:56:30;12.00;29.70
7902;DHT22;3996;49.674;10.716;2024-03-02T10:59:06;12.00;28.70
7902;DHT22;3996;49.674;10.716;2024-03-02T11:01:39;12.00;28.60
7902;DHT22;3996;49.674;10.716;2024-03-02T11:04:08;12.00;28.20
7902;DHT22;3996;49.674;10.716;2024-03-02T11:06:36;11.90;28.90
7902;DHT22;3996;49.674;10.716;2024-03-02T11:09:06;12.00;28.40
7902;DHT22;3996;49.674;10.716;2024-03-02T11:11:37;11.90;28.60
7902;DHT22;3996;49.674;10.716;2024-03-02T11:14:04;12.10;28.40
7902;DHT22;3996;49.674;10.716;2024-03-02T11:16:35;12.20;28.00
7902;DHT22;3996;49.674;10.716;2024-03-02T11:19:06;12.20;28.40
7902;DHT22;3996;49.674;10.716;2024-03-02T11:21:34;12.40;27.80
7902;DHT22;3996;49.674;10.716;2024-03-02T11:23:59;12.30;27.80
7902;DHT22;3996;49.674;10.716;2024-03-02T11:26:27;12.30;27.00
7902;DHT22;3996;49.674;10.716;2024-03-02T11:28:54;12.30;27.60
7902;DHT22;3996;49.674;10.716;2024-03-02T11:31:21;12.50;27.20
7902;DHT22;3996;49.674;10.716;2024-03-02T11:33:46;12.40;27.60
7902;DHT22;3996;49.674;10.716;2024-03-02T11:36:12;12.30;27.10
7902;DHT22;3996;49.674;10.716;2024-03-02T11:38:38;12.40;26.50
7902;DHT22;3996;49.674;10.716;2024-03-02T11:41:06;12.40;26.40
7902;DHT22;3996;49.674;10.716;2024-03-02T11:43:40;12.50;25.90
7902;DHT22;3996;49.674;10.716;2024-03-02T11:46:07;12.40;26.60
7902;DHT22;3996;49.674;10.716;2024-03-02T11:48:33;12.40;25.20
7902;DHT22;3996;49.674;10.716;2024-03-02T11:51:00;12.40;25.40
7902;DHT22;3996;49.674;10.716;2024-03-02T11:53:27;12.40;24.70
7902;DHT22;3996;49.674;10.716;2024-03-02T11:55:55;12.50;25.40
7902;DHT22;3996;49.674;10.716;2024-03-02T11:58:21;12.60;25.00
7902;DHT22;3996;49.674;10.716;2024-03-02T12:00:55;12.80;24.40
7902;DHT22;3996;49.674;10.716;2024-03-02T12:03:25;12.70;24.30
7902;DHT22;3996;49.674;10.716;2024-03-02T12:05:53;12.80;24.20
7902;DHT22;3996;49.674;10.716;2024-03-02T12:08:19;13.00;24.50
7902;DHT22;3996;49.674;10.716;2024-03-02T12:10:59;13.00;23.20
7902;DHT22;3996;49.674;10.716;2024-03-02T12:13:26;13.00;22.40
7902;DHT22;3996;49.674;10.716;2024-03-02T12:15:53;13.00;22.50
7902;DHT22;3996;49.674;10.716;2024-03-02T12:18:24;13.10;22.10
7902;DHT22;3996;49.674;10.716;2024-03-02T12:20:50;13.10;22.50
7902;DHT22;3996;49.674;10.716;2024-03-02T12:23:18;13.00;22.30
7902;DHT22;3996;49.674;10.716;2024-03-02T12:25:44;13.00;22.10
7902;DHT22;3996;49.674;10.716;2024-03-02T12:28:10;13.10;22.30
7902;DHT22;3996;49.674;10.716;2024-03-02T12:30:36;13.30;21.10
7902;DHT22;3996;49.674;10.716;2024-03-02T12:33:02;13.50;21.10
7902;DHT22;3996;49.674;10.716;2024-03-02T12:35:27;13.40;21.70
7902;DHT22;3996;49.674;10.716;2024-03-02T12:37:54;13.40;22.30
7902;DHT22;3996;49.674;10.716;2024-03-02T12:40:21;13.50;20.90
7902;DHT22;3996;49.674;10.716;2024-03-02T12:42:48;13.60;19.70
7902;DHT22;3996;49.674;10.716;2024-03-02T12:45:16;13.70;19.50
7902;DHT22;3996;49.674;10.716;2024-03-02T12:47:49;13.60;20.60
7902;DHT22;3996;49.674;10.716;2024-03-02T12:50:14;13.60;19.20
7902;DHT22;3996;49.674;10.716;2024-03-02T12:52:40;13.60;19.80
7902;DHT22;3996;49.674;10.716;2024-03-02T12:55:06;13.50;19.80
7902;DHT22;3996;49.674;10.716;2024-03-02T12:57:33;13.60;19.90
7902;DHT22;3996;49.674;10.716;2024-03-02T13:02:30;13.70;19.50
7902;DHT22;3996;49.674;10.716;2024-03-02T13:04:57;13.80;19.90
7902;DHT22;3996;49.674;10.716;2024-03-02T13:07:24;13.60;20.40
7902;DHT22;3996;49.674;10.716;2024-03-02T13:09:51;13.50;20.70
7902;DHT22;3996;49.674;10.716;2024-03-02T13:12:17;13.40;20.90
7902;DHT22;3996;49.674;10.716;2024-03-02T13:14:44;13.40;22.10
7902;DHT22;3996;49.674;10.716;2024-03-02T13:17:09;13.50;20.70
7902;DHT22;3996;49.674;10.716;2024-03-02T13:19:35;13.60;19.40
7902;DHT22;3996;49.674;10.716;2024-03-02T13:22:01;13.70;19.80
7902;DHT22;3996;49.674;10.716;2024-03-02T13:24:30;13.90;19.70
7902;DHT22;3996;49.674;10.716;2024-03-02T13:26:56;13.90;19.70
7902;DHT22;3996;49.674;10.716;2024-03-02T13:29:23;14.00;18.20
7902;DHT22;3996;49.674;10.716;2024-03-02T13:31:49;14.00;18.80
7902;DHT22;3996;49.674;10.716;2024-03-02T13:34:15;14.30;19.90
7902;DHT22;3996;49.674;10.716;2024-03-02T13:36:41;14.60;17.20
7902;DHT22;3996;49.674;10.716;2024-03-02T13:39:06;14.40;17.50
7902;DHT22;3996;49.674;10.716;2024-03-02T13:41:34;14.20;18.70
7902;DHT22;3996;49.674;10.716;2024-03-02T13:44:00;14.00;19.40
7902;DHT22;3996;49.674;10.716;2024-03-02T13:46:27;14.00;17.50
7902;DHT22;3996;49.674;10.716;2024-03-02T13:48:53;14.10;17.40
7902;DHT22;3996;49.674;10.716;2024-03-02T13:51:19;14.10;18.30
7902;DHT22;3996;49.674;10.716;2024-03-02T13:53:45;14.30;17.80
7902;DHT22;3996;49.674;10.716;2024-03-02T13:56:10;14.40;16.50
7902;DHT22;3996;49.674;10.716;2024-03-02T13:58:37;14.50;16.30
7902;DHT22;3996;49.674;10.716;2024-03-02T14:01:03;14.50;17.00
7902;DHT22;3996;49.674;10.716;2024-03-02T14:03:30;14.10;16.20
7902;DHT22;3996;49.674;10.716;2024-03-02T14:05:56;14.10;16.30
7902;DHT22;3996;49.674;10.716;2024-03-02T14:08:21;14.20;16.60
7902;DHT22;3996;49.674;10.716;2024-03-02T14:10:47;14.20;16.20
7902;DHT22;3996;49.674;10.716;2024-03-02T14:13:13;14.30;15.30
7902;DHT22;3996;49.674;10.716;2024-03-02T14:15:38;14.20;15.00
7902;DHT22;3996;49.674;10.716;2024-03-02T14:18:06;14.30;15.90
7902;DHT22;3996;49.674;10.716;2024-03-02T14:20:31;14.20;15.50
7902;DHT22;3996;49.674;10.716;2024-03-02T14:22:58;14.30;15.90
7902;DHT22;3996;49.674;10.716;2024-03-02T14:25:25;14.40;16.20
7902;DHT22;3996;49.674;10.716;2024-03-02T14:27:51;14.30;16.60
7902;DHT22;3996;49.674;10.716;2024-03-02T14:30:16;14.30;15.50
7902;DHT22;3996;49.674;10.716;2024-03-02T14:32:42;14.40;15.00
7902;DHT22;3996;49.674;10.716;2024-03-02T14:35:08;14.40;15.30
7902;DHT22;3996;49.674;10.716;2024-03-02T14:37:37;14.20;15.00
7902;DHT22;3996;49.674;10.716;2024-03-02T14:40:02;14.00;15.80
7902;DHT22;3996;49.674;10.716;2024-03-02T14:42:32;14.00;16.10
7902;DHT22;3996;49.674;10.716;2024-03-02T14:44:57;14.10;16.00
7902;DHT22;3996;49.674;10.716;2024-03-02T14:47:23;13.90;15.80
7902;DHT22;3996;49.674;10.716;2024-03-02T14:49:50;13.90;14.40
7902;DHT22;3996;49.674;10.716;2024-03-02T14:52:15;13.70;14.80
7902;DHT22;3996;49.674;10.716;2024-03-02T14:54:42;13.60;14.00
7902;DHT22;3996;49.674;10.716;2024-03-02T14:57:08;13.70;13.70
7902;DHT22;3996;49.674;10.716;2024-03-02T14:59:34;13.70;14.00
7902;DHT22;3996;49.674;10.716;2024-03-02T15:01:59;13.80;14.70
7902;DHT22;3996;49.674;10.716;2024-03-02T15:04:25;13.70;14.70
7902;DHT22;3996;49.674;10.716;2024-03-02T15:06:51;13.70;15.50
7902;DHT22;3996;49.674;10.716;2024-03-02T15:09:16;13.70;15.30
7902;DHT22;3996;49.674;10.716;2024-03-02T15:11:45;13.70;16.00
7902;DHT22;3996;49.674;10.716;2024-03-02T15:14:11;13.60;16.40
7902;DHT22;3996;49.674;10.716;2024-03-02T15:16:37;13.60;16.70
7902;DHT22;3996;49.674;10.716;2024-03-02T15:19:02;13.50;16.30
7902;DHT22;3996;49.674;10.716;2024-03-02T15:21:28;13.40;16.20
7902;DHT22;3996;49.674;10.716;2024-03-02T15:23:54;13.30;16.10
7902;DHT22;3996;49.674;10.716;2024-03-02T15:26:20;13.20;16.00
7902;DHT22;3996;49.674;10.716;2024-03-02T15:28:45;13.20;16.50
7902;DHT22;3996;49.674;10.716;2024-03-02T15:31:11;13.30;17.20
7902;DHT22;3996;49.674;10.716;2024-03-02T15:33:37;13.30;17.20
7902;DHT22;3996;49.674;10.716;2024-03-02T15:36:03;13.30;17.50
7902;DHT22;3996;49.674;10.716;2024-03-02T15:38:29;13.20;18.00
7902;DHT22;3996;49.674;10.716;2024-03-02T15:40:55;13.30;17.90
7902;DHT22;3996;49.674;10.716;2024-03-02T15:43:21;13.20;16.70
7902;DHT22;3996;49.674;10.716;2024-03-02T15:45:47;13.10;15.50
7902;DHT22;3996;49.674;10.716;2024-03-02T15:48:12;13.10;14.90
7902;DHT22;3996;49.674;10.716;2024-03-02T15:50:38;13.10;15.10
7902;DHT22;3996;49.674;10.716;2024-03-02T15:53:04;13.10;15.40